Time;durP1;ratioP1;P1;durP2;ratioP2;P2;SDS_P1;SDS_P2;PMS_P1;PMS_P2;Temp;Humidity;BMP_temperature;BMP_pressure;BME280_temperature;BME280_humidity;BME280_pressure;Samples;Min_cycle;Max_cycle;Signal;HPM_P1;HPM_P2
2021/12/04 00:01:48;;;;;;;1.05;0.40;;;19.00;44.40;;;;;;4852845;29;20067;-63
2021/12/04 00:04:19;;;;;;;0.43;0.25;;;19.00;44.40;;;;;;4847464;29;20054;-63
2021/12/04 00:06:45;;;;;;;0.50;0.30;;;19.00;44.40;;;;;;4844614;29;20109;-63
2021/12/04 00:09:12;;;;;;;1.42;0.32;;;19.00;44.40;;;;;;4845322;29;20116;-63
2021/12/04 00:11:40;;;;;;;0.55;0.20;;;19.00;44.50;;;;;;4850547;29;20037;-63
2021/12/04 00:14:06;;;;;;;0.68;0.40;;;19.00;44.50;;;;;;4846807;29;20124;-64
2021/12/04 00:16:32;;;;;;;0.40;0.30;;;19.00;44.50;;;;;;4848824;29;20185;-64
2021/12/04 00:18:57;;;;;;;0.55;0.28;;;19.00;44.50;;;;;;4852679;29;20052;-64
2021/12/04 00:21:23;;;;;;;0.68;0.30;;;18.90;44.40;;;;;;4846747;29;20034;-64
2021/12/04 00:23:49;;;;;;;0.80;0.43;;;18.90;44.60;;;;;;4844173;29;20037;-64
2021/12/04 00:26:14;;;;;;;0.50;0.20;;;18.90;44.50;;;;;;4845667;29;20038;-64
2021/12/04 00:28:40;;;;;;;0.88;0.57;;;18.90;44.50;;;;;;4835482;29;20112;-64
2021/12/04 00:31:08;;;;;;;0.50;0.30;;;18.90;44.50;;;;;;4849431;29;20048;-64
2021/12/04 00:33:37;;;;;;;0.40;0.40;;;18.90;44.50;;;;;;4854988;29;20050;-63
2021/12/04 00:36:21;;;;;;;1.10;0.30;;;18.90;44.60;;;;;;4848610;29;20073;-63
2021/12/04 00:49:43;;;;;;;0.45;0.22;;;18.80;44.60;;;;;;4847627;29;20091;-63
2021/12/04 00:52:08;;;;;;;0.43;0.40;;;18.80;44.60;;;;;;4850469;29;20037;-61
2021/12/04 00:54:34;;;;;;;1.02;0.40;;;18.80;44.70;;;;;;4848685;29;20371;-61
2021/12/04 00:57:00;;;;;;;0.80;0.55;;;18.80;44.60;;;;;;4853551;29;20029;-62
2021/12/04 00:59:26;;;;;;;1.25;0.40;;;18.70;44.40;;;;;;4852743;29;20073;-62
2021/12/04 01:01:52;;;;;;;0.90;0.60;;;18.70;44.30;;;;;;4850592;29;20037;-61
2021/12/04 01:04:20;;;;;;;0.75;0.40;;;18.70;44.20;;;;;;4849096;29;20038;-61
2021/12/04 01:06:46;;;;;;;1.85;0.40;;;18.70;44.10;;;;;;4848680;29;20030;-61
2021/12/04 01:09:13;;;;;;;0.82;0.43;;;18.70;44.10;;;;;;4849029;29;20386;-63
2021/12/04 01:11:40;;;;;;;1.50;0.40;;;18.70;44.10;;;;;;4847468;29;20382;-63
2021/12/04 01:14:07;;;;;;;0.93;0.40;;;18.70;44.10;;;;;;4851132;29;20467;-63
2021/12/04 01:16:32;;;;;;;0.63;0.40;;;18.60;44.10;;;;;;4851622;29;20038;-63
2021/12/04 01:18:58;;;;;;;0.50;0.40;;;18.60;44.10;;;;;;4845506;29;20382;-63
2021/12/04 01:21:24;;;;;;;0.82;0.50;;;18.60;44.10;;;;;;4853113;29;20057;-63
2021/12/04 01:23:49;;;;;;;0.40;0.40;;;18.60;44.10;;;;;;4852794;29;20027;-63
2021/12/04 01:26:15;;;;;;;1.58;0.40;;;18.60;44.10;;;;;;4850283;29;20046;-63
2021/12/04 01:28:41;;;;;;;0.73;0.52;;;18.50;44.90;;;;;;4848450;29;20038;-63
2021/12/04 01:31:06;;;;;;;0.95;0.50;;;18.50;44.00;;;;;;4849675;29;20041;-63
2021/12/04 01:33:32;;;;;;;0.40;0.30;;;18.50;44.00;;;;;;4848190;29;20061;-63
2021/12/04 01:35:58;;;;;;;0.98;0.50;;;18.50;44.00;;;;;;4850095;29;20037;-63
2021/12/04 01:38:24;;;;;;;0.30;0.28;;;18.50;44.00;;;;;;4847408;29;20502;-63
2021/12/04 01:40:50;;;;;;;0.68;0.30;;;18.50;44.00;;;;;;4849753;29;20106;-64
2021/12/04 01:43:16;;;;;;;0.77;0.40;;;18.40;43.90;;;;;;4859461;29;20030;-63
2021/12/04 01:45:41;;;;;;;0.60;0.40;;;18.40;44.10;;;;;;4849951;29;20034;-63
2021/12/04 01:48:07;;;;;;;0.82;0.45;;;18.40;44.00;;;;;;4846992;29;20120;-63
2021/12/04 01:50:33;;;;;;;1.05;0.43;;;18.40;44.00;;;;;;4847435;29;20052;-62
2021/12/04 01:53:00;;;;;;;0.77;0.40;;;18.40;44.00;;;;;;4846287;29;20042;-62
2021/12/04 01:55:28;;;;;;;0.43;0.30;;;18.40;44.00;;;;;;4849859;29;20487;-62
2021/12/04 01:57:53;;;;;;;0.35;0.35;;;18.40;44.10;;;;;;4847427;29;20418;-61
2021/12/04 02:00:20;;;;;;;1.10;0.52;;;18.40;44.00;;;;;;4850264;29;20031;-62
2021/12/04 02:02:46;;;;;;;0.40;0.30;;;18.40;44.00;;;;;;4848874;29;20060;-62
2021/12/04 02:05:12;;;;;;;0.55;0.30;;;18.30;44.00;;;;;;4848718;29;20069;-62
2021/12/04 02:07:38;;;;;;;0.63;0.40;;;18.30;43.90;;;;;;4844718;29;20037;-63
2021/12/04 02:10:05;;;;;;;1.45;0.60;;;18.30;44.00;;;;;;4850127;29;20036;-63
2021/12/04 02:12:31;;;;;;;0.38;0.30;;;18.30;43.90;;;;;;4854996;29;20052;-63
2021/12/04 02:14:58;;;;;;;0.50;0.40;;;18.30;44.00;;;;;;4854394;29;20120;-63
2021/12/04 02:17:23;;;;;;;1.10;0.20;;;18.30;43.90;;;;;;4844459;29;20032;-63
2021/12/04 02:19:49;;;;;;;1.08;0.60;;;18.30;44.00;;;;;;4848083;29;20125;-63
2021/12/04 02:22:15;;;;;;;0.52;0.40;;;18.30;44.00;;;;;;4847030;29;20386;-63
2021/12/04 02:24:41;;;;;;;0.82;0.40;;;18.20;44.90;;;;;;4835237;29;20057;-63
2021/12/04 02:27:06;;;;;;;1.40;0.40;;;18.20;43.90;;;;;;4846771;29;20033;-63
2021/12/04 02:29:32;;;;;;;1.00;0.30;;;18.20;43.90;;;;;;4850662;29;20082;-63
2021/12/04 02:31:59;;;;;;;1.13;0.43;;;18.20;43.90;;;;;;4848707;29;20040;-63
2021/12/04 02:34:27;;;;;;;1.15;0.45;;;18.20;43.90;;;;;;4850777;29;20030;-64
2021/12/04 02:36:54;;;;;;;1.33;0.40;;;18.20;44.00;;;;;;4845046;29;20089;-64
2021/12/04 02:39:28;;;;;;;0.57;0.30;;;18.20;44.00;;;;;;4850738;29;20037;-63
2021/12/04 02:41:54;;;;;;;0.30;0.20;;;18.20;43.90;;;;;;4850818;29;20026;-63
2021/12/04 02:44:22;;;;;;;0.30;0.30;;;18.10;43.90;;;;;;4847146;29;20038;-63
2021/12/04 02:46:47;;;;;;;0.55;0.30;;;18.10;44.00;;;;;;4845043;29;20018;-63
2021/12/04 02:49:15;;;;;;;0.60;0.30;;;18.10;44.00;;;;;;4834748;29;20033;-63
2021/12/04 02:51:41;;;;;;;0.25;0.20;;;18.10;44.00;;;;;;4853168;29;20038;-63
2021/12/04 02:54:10;;;;;;;0.40;0.30;;;18.10;43.90;;;;;;4846567;29;20049;-63
2021/12/04 02:56:36;;;;;;;0.30;0.20;;;18.10;44.90;;;;;;4846928;29;20022;-63
2021/12/04 02:59:03;;;;;;;0.40;0.30;;;18.10;44.00;;;;;;4848037;29;20049;-63
2021/12/04 03:01:29;;;;;;;0.30;0.20;;;18.10;44.00;;;;;;4847500;29;20057;-63
2021/12/04 03:04:09;;;;;;;0.70;0.30;;;18.00;44.00;;;;;;4846442;29;20053;-63
2021/12/04 03:06:45;;;;;;;0.30;0.30;;;18.00;43.90;;;;;;4856415;29;20033;-63
2021/12/04 03:09:11;;;;;;;0.75;0.30;;;18.00;44.00;;;;;;4846896;29;20026;-63
2021/12/04 03:11:37;;;;;;;0.70;0.20;;;18.00;44.10;;;;;;4845332;29;20030;-63
2021/12/04 03:14:04;;;;;;;0.60;0.30;;;18.00;44.10;;;;;;4848812;29;20058;-63
2021/12/04 03:16:30;;;;;;;0.45;0.43;;;18.00;45.00;;;;;;4850445;29;20080;-63
2021/12/04 03:18:56;;;;;;;0.70;0.40;;;18.00;44.10;;;;;;4843478;29;20124;-63
2021/12/04 03:21:21;;;;;;;0.45;0.30;;;18.00;44.10;;;;;;4851118;29;20817;-63
2021/12/04 03:24:00;;;;;;;0.40;0.20;;;17.90;44.10;;;;;;4849460;29;20154;-63
2021/12/04 03:26:26;;;;;;;0.38;0.30;;;17.90;44.10;;;;;;4848527;29;20030;-63
2021/12/04 03:28:53;;;;;;;0.40;0.30;;;17.90;44.00;;;;;;4855861;29;20026;-63
2021/12/04 03:42:10;;;;;;;0.85;0.28;;;17.80;44.00;;;;;;4855755;29;20110;-63
2021/12/04 03:44:36;;;;;;;0.65;0.20;;;17.80;44.00;;;;;;4847027;29;20030;-63
2021/12/04 03:47:02;;;;;;;0.40;0.30;;;17.80;44.00;;;;;;4854347;29;20447;-63
2021/12/04 03:49:28;;;;;;;0.80;0.40;;;17.80;45.00;;;;;;4843478;29;20053;-63
2021/12/04 03:51:53;;;;;;;0.20;0.20;;;17.80;44.00;;;;;;4849864;29;20442;-63
2021/12/04 03:54:20;;;;;;;0.95;0.22;;;17.80;44.00;;;;;;4846895;29;20406;-63
2021/12/04 03:56:46;;;;;;;0.70;0.20;;;17.80;44.00;;;;;;4851034;29;20386;-64
2021/12/04 03:59:11;;;;;;;0.70;0.30;;;17.80;44.00;;;;;;4850477;29;20038;-63
2021/12/04 04:01:37;;;;;;;0.45;0.28;;;17.80;44.00;;;;;;4850260;29;20038;-63
2021/12/04 04:04:03;;;;;;;0.30;0.30;;;17.70;44.00;;;;;;4843551;29;20037;-63
2021/12/04 04:06:29;;;;;;;0.20;0.20;;;17.70;44.00;;;;;;4847706;29;20022;-63
2021/12/04 04:08:54;;;;;;;0.57;0.40;;;17.70;44.00;;;;;;4845469;29;20483;-62
2021/12/04 04:11:20;;;;;;;0.40;0.20;;;17.70;44.00;;;;;;4853105;29;20053;-61
2021/12/04 04:13:46;;;;;;;0.28;0.28;;;17.70;44.00;;;;;;4855083;29;20058;-61
2021/12/04 04:16:13;;;;;;;0.40;0.22;;;17.70;44.10;;;;;;4850379;29;20038;-61
2021/12/04 04:18:38;;;;;;;0.57;0.32;;;17.70;44.00;;;;;;4834919;29;20474;-61
2021/12/04 04:21:04;;;;;;;0.35;0.22;;;17.70;44.00;;;;;;4848105;29;20033;-63
2021/12/04 04:23:30;;;;;;;0.60;0.30;;;17.70;44.10;;;;;;4845738;29;20439;-63
2021/12/04 04:25:56;;;;;;;0.22;0.20;;;17.70;44.10;;;;;;4849760;29;20111;-63
2021/12/04 04:28:21;;;;;;;0.10;0.10;;;17.70;44.10;;;;;;4846202;29;20471;-64
2021/12/04 04:30:47;;;;;;;0.55;0.20;;;17.60;44.00;;;;;;4839999;29;20048;-63
2021/12/04 04:33:14;;;;;;;0.30;0.30;;;17.60;44.10;;;;;;4846579;29;20074;-63
2021/12/04 04:35:47;;;;;;;0.28;0.20;;;17.60;44.10;;;;;;4847657;29;20034;-63
2021/12/04 04:38:53;;;;;;;0.98;0.30;;;17.60;44.10;;;;;;4849066;29;20037;-63
2021/12/04 05:10:38;;;;;;;0.30;0.20;;;17.40;44.40;;;;;;4845673;29;20394;-63
2021/12/04 05:13:07;;;;;;;0.20;0.20;;;17.40;44.40;;;;;;4848672;29;20106;-63
2021/12/04 05:18:09;;;;;;;0.32;0.20;;;17.40;44.30;;;;;;4847968;29;20077;-63
2021/12/04 05:20:38;;;;;;;0.32;0.20;;;17.40;44.40;;;;;;4847205;29;20049;-63
2021/12/04 05:23:07;;;;;;;0.30;0.30;;;17.40;44.30;;;;;;4852470;29;20038;-63
2021/12/04 05:25:35;;;;;;;0.10;0.10;;;17.40;44.40;;;;;;4845258;29;20113;-63
2021/12/04 05:28:02;;;;;;;0.20;0.20;;;17.40;44.40;;;;;;4852036;29;20542;-63
2021/12/04 05:30:28;;;;;;;0.20;0.15;;;17.40;44.40;;;;;;4845483;29;20037;-64
2021/12/04 05:32:53;;;;;;;0.70;0.40;;;17.40;44.40;;;;;;4832346;29;20045;-63
2021/12/04 05:35:20;;;;;;;0.40;0.32;;;17.40;44.40;;;;;;4847209;29;20038;-63
2021/12/04 05:37:47;;;;;;;0.28;0.20;;;17.40;44.40;;;;;;4851530;29;20042;-63
2021/12/04 05:40:14;;;;;;;0.40;0.30;;;17.40;44.40;;;;;;4852483;29;20069;-63
2021/12/04 05:42:41;;;;;;;0.10;0.10;;;17.40;44.40;;;;;;4851446;29;20029;-63
2021/12/04 05:45:14;;;;;;;0.40;0.20;;;17.40;44.40;;;;;;4849383;29;20111;-63
2021/12/04 05:47:45;;;;;;;0.38;0.30;;;17.40;44.40;;;;;;4852670;29;20033;-63
2021/12/04 05:50:24;;;;;;;0.50;0.20;;;17.30;44.40;;;;;;4858983;29;20057;-62
2021/12/04 05:53:14;;;;;;;0.25;0.10;;;17.30;44.40;;;;;;4846822;29;20042;-61
2021/12/04 05:55:51;;;;;;;0.47;0.20;;;17.40;44.40;;;;;;4851125;29;20049;-61
2021/12/04 05:58:16;;;;;;;0.73;0.35;;;17.40;44.50;;;;;;4851053;29;20505;-61
2021/12/04 06:00:42;;;;;;;0.88;0.35;;;17.30;44.40;;;;;;4849043;29;20041;-61
2021/12/04 06:03:07;;;;;;;0.17;0.17;;;17.30;44.40;;;;;;4847235;29;20034;-61
2021/12/04 06:05:33;;;;;;;0.20;0.20;;;17.30;44.40;;;;;;4845820;29;20042;-61
2021/12/04 06:07:59;;;;;;;0.82;0.40;;;17.30;44.50;;;;;;4850696;29;20351;-61
2021/12/04 06:10:24;;;;;;;0.20;0.20;;;17.30;44.50;;;;;;4847975;29;20375;-61
2021/12/04 06:12:50;;;;;;;0.52;0.30;;;17.30;44.50;;;;;;4850302;29;20050;-61
2021/12/04 06:15:15;;;;;;;0.13;0.10;;;17.30;44.50;;;;;;4851728;29;20159;-63
2021/12/04 06:17:41;;;;;;;0.20;0.10;;;17.30;44.50;;;;;;4850334;29;20037;-63
2021/12/04 06:22:52;;;;;;;0.28;0.20;;;17.30;44.50;;;;;;4850046;29;20056;-63
2021/12/04 06:25:20;;;;;;;0.35;0.22;;;17.30;44.50;;;;;;4847853;29;20038;-63
2021/12/04 06:27:46;;;;;;;0.35;0.20;;;17.30;44.60;;;;;;4852433;29;20036;-63
2021/12/04 06:30:15;;;;;;;0.13;0.13;;;17.20;44.60;;;;;;4847265;29;20050;-63
2021/12/04 06:32:41;;;;;;;0.10;0.10;;;17.20;44.50;;;;;;4848563;29;20037;-63
2021/12/04 06:35:10;;;;;;;0.55;0.10;;;17.30;44.60;;;;;;4846873;29;20050;-63
2021/12/04 06:37:36;;;;;;;0.40;0.28;;;17.20;44.50;;;;;;4844858;29;20026;-63
2021/12/04 06:40:04;;;;;;;0.20;0.20;;;17.30;44.50;;;;;;4847235;29;20042;-63
2021/12/04 06:42:30;;;;;;;0.20;0.20;;;17.30;44.60;;;;;;4850809;29;20049;-63
2021/12/04 06:44:57;;;;;;;0.13;0.10;;;17.30;44.60;;;;;;4847358;29;20026;-63
2021/12/04 06:47:24;;;;;;;0.15;0.10;;;17.20;44.60;;;;;;4849957;29;20026;-63
2021/12/04 06:49:52;;;;;;;0.40;0.20;;;17.20;44.60;;;;;;4845829;29;20354;-63
2021/12/04 06:52:22;;;;;;;0.30;0.20;;;17.30;44.60;;;;;;4858680;29;20032;-63
2021/12/04 06:54:56;;;;;;;0.55;0.20;;;17.20;44.60;;;;;;4844522;29;20034;-63
2021/12/04 06:57:23;;;;;;;0.20;0.20;;;17.30;44.60;;;;;;4849891;29;20112;-63
2021/12/04 06:59:51;;;;;;;0.30;0.20;;;17.20;44.60;;;;;;4846489;29;20105;-63
2021/12/04 07:02:17;;;;;;;0.30;0.13;;;17.20;44.60;;;;;;4849127;29;20033;-63
2021/12/04 07:04:43;;;;;;;0.10;0.10;;;17.20;44.60;;;;;;4849810;29;20351;-63
2021/12/04 07:07:10;;;;;;;0.17;0.10;;;17.20;44.70;;;;;;4856528;29;20045;-63
2021/12/04 07:09:36;;;;;;;0.20;0.15;;;17.20;44.60;;;;;;4843912;29;20553;-64
2021/12/04 07:12:03;;;;;;;0.80;0.30;;;17.20;44.60;;;;;;4849098;29;20482;-63
2021/12/04 07:14:30;;;;;;;0.10;0.10;;;17.30;44.70;;;;;;4851354;29;20049;-63
2021/12/04 07:16:57;;;;;;;0.30;0.20;;;17.30;44.70;;;;;;4846216;29;20550;-63
2021/12/04 07:19:22;;;;;;;0.15;0.15;;;17.30;44.70;;;;;;4848216;29;20074;-63
2021/12/04 07:21:48;;;;;;;0.30;0.10;;;17.20;44.60;;;;;;4846990;29;20101;-63
2021/12/04 07:24:15;;;;;;;0.30;0.20;;;17.30;44.70;;;;;;4845866;29;20455;-63
2021/12/04 07:26:41;;;;;;;0.10;0.10;;;17.30;44.70;;;;;;4859266;29;20038;-62
2021/12/04 07:29:07;;;;;;;0.38;0.20;;;17.20;44.60;;;;;;4849997;29;20076;-61
2021/12/04 07:31:34;;;;;;;0.32;0.20;;;17.30;44.60;;;;;;4846827;29;20097;-61
2021/12/04 07:34:00;;;;;;;0.45;0.22;;;17.30;44.60;;;;;;4848916;29;20475;-61
2021/12/04 07:36:27;;;;;;;0.57;0.20;;;17.30;44.60;;;;;;4846912;29;20038;-61
2021/12/04 07:38:53;;;;;;;0.10;0.10;;;17.30;44.60;;;;;;4851821;29;20041;-61
2021/12/04 07:41:19;;;;;;;0.10;0.10;;;17.30;44.60;;;;;;4847232;29;20135;-63
2021/12/04 07:43:45;;;;;;;0.20;0.13;;;17.30;44.70;;;;;;4844639;29;20128;-63
2021/12/04 07:46:11;;;;;;;0.28;0.20;;;17.30;44.70;;;;;;4856083;29;20038;-63
2021/12/04 07:48:37;;;;;;;1.67;0.98;;;17.30;44.60;;;;;;4843201;29;20028;-61
2021/12/04 07:51:04;;;;;;;1.83;0.93;;;17.30;44.70;;;;;;4845575;29;20038;-61
2021/12/04 07:53:31;;;;;;;4.82;0.80;;;17.10;44.70;;;;;;4845945;29;20101;-61
2021/12/04 07:55:57;;;;;;;1.08;0.70;;;16.90;45.00;;;;;;4845849;29;20563;-61
2021/12/04 07:58:22;;;;;;;1.02;0.82;;;16.80;45.30;;;;;;4848543;29;20028;-61
2021/12/04 08:00:48;;;;;;;2.55;1.25;;;16.70;45.50;;;;;;4847291;29;20037;-60
2021/12/04 08:03:14;;;;;;;1.40;1.10;;;16.70;45.70;;;;;;4849231;29;20036;-60
2021/12/04 08:05:39;;;;;;;0.77;0.73;;;16.70;45.90;;;;;;4852261;29;20498;-60
2021/12/04 08:08:05;;;;;;;1.50;0.60;;;16.70;46.10;;;;;;4857836;29;20096;-60
2021/12/04 08:10:31;;;;;;;1.10;0.85;;;16.70;46.30;;;;;;4846351;29;20125;-60
2021/12/04 08:12:59;;;;;;;1.75;0.77;;;16.60;46.30;;;;;;4835306;29;20136;-60
2021/12/04 08:15:25;;;;;;;1.77;0.90;;;16.70;46.40;;;;;;4848539;29;20121;-60
2021/12/04 08:17:51;;;;;;;1.88;1.00;;;16.70;46.40;;;;;;4847331;29;20105;-60
2021/12/04 08:20:17;;;;;;;2.47;0.88;;;16.70;46.30;;;;;;4850384;29;20500;-60
2021/12/04 08:22:44;;;;;;;2.10;1.17;;;16.80;46.40;;;;;;4860361;29;20033;-61
2021/12/04 08:25:16;;;;;;;2.85;1.10;;;16.80;46.30;;;;;;4846129;29;20079;-61
2021/12/04 08:27:42;;;;;;;1.52;1.10;;;16.80;46.40;;;;;;4835041;29;20038;-61
2021/12/04 08:30:11;;;;;;;1.65;1.33;;;16.90;46.50;;;;;;4852075;29;20056;-60
2021/12/04 08:32:38;;;;;;;1.15;0.70;;;16.90;46.60;;;;;;4851347;29;20489;-60
2021/12/04 08:35:05;;;;;;;0.95;0.57;;;17.00;47.00;;;;;;4846866;29;20030;-59
2021/12/04 08:37:30;;;;;;;1.10;0.63;;;17.10;47.00;;;;;;4849759;29;20066;-59
2021/12/04 08:39:56;;;;;;;0.90;0.65;;;17.40;47.00;;;;;;4848766;29;20077;-59
2021/12/04 08:42:24;;;;;;;0.75;0.57;;;17.50;46.70;;;;;;4852526;29;20063;-57
2021/12/04 08:44:50;;;;;;;1.85;0.75;;;17.60;46.50;;;;;;4831391;29;20450;-60
2021/12/04 08:47:15;;;;;;;1.25;0.40;;;17.80;46.40;;;;;;4851681;29;20046;-61
2021/12/04 08:49:43;;;;;;;2.08;0.50;;;18.00;46.30;;;;;;4849323;29;20046;-60
2021/12/04 08:52:09;;;;;;;1.88;0.60;;;18.10;46.10;;;;;;4850960;29;20155;-60
2021/12/04 08:54:36;;;;;;;1.75;0.45;;;18.20;45.90;;;;;;4866496;29;20029;-60
2021/12/04 08:57:02;;;;;;;1.38;0.38;;;18.30;45.70;;;;;;4848557;29;20458;-60
2021/12/04 08:59:29;;;;;;;0.45;0.43;;;18.40;45.60;;;;;;4856299;29;20033;-60
2021/12/04 09:01:55;;;;;;;1.95;0.47;;;18.40;45.50;;;;;;4857162;29;20381;-60
2021/12/04 09:04:27;;;;;;;0.82;0.40;;;18.40;45.40;;;;;;4849989;29;20038;-60
2021/12/04 09:06:53;;;;;;;1.25;0.75;;;18.50;45.40;;;;;;4846631;29;20547;-60
2021/12/04 09:09:20;;;;;;;3.92;0.60;;;18.60;45.20;;;;;;4856288;29;20026;-60
2021/12/04 09:11:50;;;;;;;1.60;0.45;;;18.70;45.10;;;;;;4854143;29;20113;-60
2021/12/04 09:14:20;;;;;;;0.80;0.43;;;18.80;45.00;;;;;;4857623;29;20076;-60
2021/12/04 09:16:49;;;;;;;0.47;0.40;;;18.90;44.70;;;;;;4858305;29;20065;-60
2021/12/04 09:19:15;;;;;;;1.80;0.57;;;18.90;44.70;;;;;;4856153;29;20045;-60
2021/12/04 09:21:41;;;;;;;2.00;0.45;;;19.00;44.80;;;;;;4839579;29;20030;-60
2021/12/04 09:24:11;;;;;;;0.70;0.40;;;19.10;44.70;;;;;;4850063;29;20022;-60
2021/12/04 09:26:53;;;;;;;1.05;0.75;;;19.10;44.50;;;;;;4856747;29;20456;-60
2021/12/04 09:34:49;;;;;;;1.65;0.63;;;19.40;44.20;;;;;;4849129;29;20042;-60
2021/12/04 10:13:16;;;;;;;1.30;0.50;;;20.50;42.60;;;;;;4852512;29;20501;-61
2021/12/04 10:34:40;;;;;;;2.13;0.65;;;20.70;41.40;;;;;;4849056;29;20126;-61
2021/12/04 10:37:13;;;;;;;0.90;0.70;;;20.80;41.30;;;;;;4846041;29;20120;-61
2021/12/04 10:39:39;;;;;;;1.05;0.63;;;20.80;41.20;;;;;;4850036;29;20026;-61
2021/12/04 10:42:29;;;;;;;1.50;0.80;;;20.80;41.20;;;;;;4845672;29;20402;-61
2021/12/04 10:44:57;;;;;;;1.13;0.70;;;20.80;41.10;;;;;;4850878;29;20042;-61
2021/12/04 10:47:27;;;;;;;2.10;0.50;;;20.80;41.10;;;;;;4846742;29;20112;-60
2021/12/04 10:53:02;;;;;;;1.00;0.55;;;20.90;40.80;;;;;;4846021;29;20060;-60
2021/12/04 11:44:31;;;;;;;1.63;1.00;;;21.00;41.90;;;;;;4855100;29;20044;-60
2021/12/04 11:46:57;;;;;;;1.92;0.77;;;21.00;41.90;;;;;;4849321;29;20425;-60
2021/12/04 11:49:27;;;;;;;1.38;0.75;;;21.00;42.10;;;;;;4849678;29;20144;-60
2021/12/04 11:52:00;;;;;;;2.05;1.00;;;21.00;41.80;;;;;;4845166;29;20029;-60
2021/12/04 11:54:42;;;;;;;2.70;0.90;;;21.00;41.90;;;;;;4854576;29;20129;-61
2021/12/04 11:57:15;;;;;;;2.05;1.17;;;21.00;41.90;;;;;;4849336;29;20030;-58
2021/12/04 11:59:43;;;;;;;2.97;1.20;;;21.00;42.10;;;;;;4846269;29;20030;-58
2021/12/04 12:02:18;;;;;;;1.38;0.80;;;21.00;42.20;;;;;;4847887;29;20034;-59
2021/12/04 12:04:54;;;;;;;1.80;1.10;;;20.90;42.30;;;;;;4848073;29;20030;-61
2021/12/04 12:07:23;;;;;;;2.33;0.95;;;20.90;42.30;;;;;;4854231;29;20030;-61
2021/12/04 12:10:05;;;;;;;1.35;1.00;;;20.90;42.50;;;;;;4847765;29;20025;-61
2021/12/04 12:12:36;;;;;;;2.63;1.05;;;20.90;42.50;;;;;;4847305;29;20508;-60
2021/12/04 12:15:15;;;;;;;1.92;1.10;;;20.80;42.60;;;;;;4854882;29;20050;-61
2021/12/04 12:17:42;;;;;;;2.35;1.10;;;20.80;42.70;;;;;;4846941;29;20030;-62
2021/12/04 12:20:15;;;;;;;3.72;1.05;;;20.80;43.00;;;;;;4865942;29;20037;-59
2021/12/04 12:25:24;;;;;;;1.65;1.10;;;20.80;43.20;;;;;;4844549;29;20854;-59
2021/12/04 12:36:14;;;;;;;2.08;1.30;;;20.70;42.70;;;;;;4847133;29;20046;-58
2021/12/04 12:38:49;;;;;;;1.30;1.20;;;20.70;42.80;;;;;;4850994;29;20025;-58
2021/12/04 12:41:29;;;;;;;2.15;1.02;;;20.70;42.90;;;;;;4851354;29;20506;-58
2021/12/04 12:44:04;;;;;;;1.83;1.00;;;20.70;43.00;;;;;;4845694;29;20030;-60
2021/12/04 12:46:40;;;;;;;3.05;1.20;;;20.60;42.80;;;;;;4844030;29;20542;-61
2021/12/04 12:49:18;;;;;;;1.70;1.23;;;20.60;42.70;;;;;;4848016;29;20030;-61
2021/12/04 12:51:52;;;;;;;1.30;1.17;;;20.60;42.70;;;;;;4849881;29;20117;-61
2021/12/04 12:54:31;;;;;;;2.20;1.05;;;20.60;42.90;;;;;;4844111;29;20101;-61
2021/12/04 12:57:14;;;;;;;1.40;1.17;;;20.60;43.00;;;;;;4846723;29;20025;-61
2021/12/04 13:11:48;;;;;;;1.58;1.23;;;20.50;42.90;;;;;;4848388;29;20410;-58
2021/12/04 13:14:18;;;;;;;1.40;1.13;;;20.50;43.20;;;;;;4843923;29;20386;-58
2021/12/04 13:16:47;;;;;;;2.45;1.40;;;20.50;43.00;;;;;;4852241;29;20041;-59
2021/12/04 13:19:18;;;;;;;1.55;1.35;;;20.50;43.00;;;;;;4846207;29;20041;-59
2021/12/04 13:21:48;;;;;;;2.05;1.40;;;20.50;43.00;;;;;;4849697;29;20144;-60
2021/12/04 13:24:15;;;;;;;2.15;1.55;;;20.50;43.20;;;;;;4855382;29;20109;-59
2021/12/04 13:26:47;;;;;;;2.00;1.40;;;20.50;43.20;;;;;;4844992;29;20030;-60
2021/12/04 13:29:15;;;;;;;3.53;1.60;;;20.50;43.40;;;;;;4845613;29;20497;-58
2021/12/04 13:31:41;;;;;;;2.22;1.67;;;20.50;43.40;;;;;;4851999;29;20030;-59
2021/12/04 13:34:10;;;;;;;2.42;1.73;;;20.50;43.30;;;;;;4847968;29;20040;-58
2021/12/04 13:36:36;;;;;;;1.90;1.70;;;20.50;43.20;;;;;;4845798;29;20026;-59
2021/12/04 13:39:05;;;;;;;4.78;1.75;;;20.50;43.20;;;;;;4851448;29;20133;-59
2021/12/04 13:41:31;;;;;;;2.63;1.80;;;20.50;43.30;;;;;;4852030;29;20037;-58
2021/12/04 13:44:00;;;;;;;2.97;1.88;;;20.50;43.30;;;;;;4850508;29;20033;-59
2021/12/04 13:46:26;;;;;;;2.20;1.80;;;20.50;43.30;;;;;;4847578;29;20036;-58
2021/12/04 13:49:00;;;;;;;1.98;1.70;;;20.50;43.20;;;;;;4847504;29;20026;-59
2021/12/04 13:51:26;;;;;;;2.15;1.90;;;20.50;43.20;;;;;;4849606;29;20086;-59
2021/12/04 13:53:52;;;;;;;5.63;1.77;;;20.50;43.30;;;;;;4855805;29;20046;-58
2021/12/04 13:56:22;;;;;;;2.25;1.90;;;20.50;43.30;;;;;;4852671;29;20025;-58
2021/12/04 13:58:54;;;;;;;2.75;2.08;;;20.50;43.60;;;;;;4854756;29;20492;-59
2021/12/04 14:01:21;;;;;;;2.95;1.65;;;20.50;43.70;;;;;;4853910;29;20083;-62
2021/12/04 14:03:47;;;;;;;2.60;1.60;;;20.50;43.80;;;;;;4867025;29;20066;-61
2021/12/04 14:06:18;;;;;;;41.67;7.93;;;20.50;43.70;;;;;;4853104;29;20117;-62
2021/12/04 14:09:03;;;;;;;88.18;18.05;;;20.50;43.60;;;;;;4847810;29;20022;-61
2021/12/04 14:11:36;;;;;;;133.60;24.58;;;20.50;44.10;;;;;;4851454;29;20418;-62
2021/12/04 14:14:20;;;;;;;92.45;17.38;;;20.50;44.50;;;;;;4848338;29;20565;-62
2021/12/04 14:16:50;;;;;;;115.63;20.75;;;20.50;44.60;;;;;;4846810;29;20033;-62
2021/12/04 14:19:28;;;;;;;87.00;18.00;;;20.50;44.70;;;;;;4832799;29;20053;-60
2021/12/04 14:22:01;;;;;;;81.45;17.10;;;20.50;44.50;;;;;;4855712;29;20498;-60
2021/12/04 14:24:30;;;;;;;69.90;15.38;;;20.50;44.30;;;;;;4848439;29;20030;-60
2021/12/04 14:26:58;;;;;;;71.80;15.57;;;20.50;44.20;;;;;;4860587;29;20060;-60
2021/12/04 14:29:26;;;;;;;86.32;16.50;;;20.50;44.30;;;;;;4850945;29;20034;-60
2021/12/04 14:31:53;;;;;;;74.70;15.23;;;20.50;44.50;;;;;;4854555;29;20041;-58
2021/12/04 14:34:24;;;;;;;83.63;15.90;;;20.50;44.70;;;;;;4858632;29;20474;-62
2021/12/04 14:37:11;;;;;;;77.90;15.57;;;20.50;45.00;;;;;;4848539;29;20066;-62
2021/12/04 14:39:42;;;;;;;69.05;13.45;;;20.50;45.10;;;;;;4851802;29;20041;-63
2021/12/04 14:42:30;;;;;;;73.63;14.18;;;20.50;45.00;;;;;;4832351;29;20415;-63
2021/12/04 14:45:00;;;;;;;69.05;14.63;;;20.50;45.20;;;;;;4848550;29;20506;-63
2021/12/04 14:47:31;;;;;;;74.15;15.32;;;20.50;45.40;;;;;;4856201;29;20028;-63
2021/12/04 14:50:00;;;;;;;64.30;13.10;;;20.50;45.60;;;;;;4856497;29;20054;-63
2021/12/04 14:52:33;;;;;;;61.63;14.07;;;20.50;45.60;;;;;;4860832;29;20034;-63
2021/12/04 14:55:18;;;;;;;66.80;13.23;;;20.50;45.80;;;;;;4851649;29;20535;-63
2021/12/04 14:57:44;;;;;;;52.80;12.65;;;20.50;46.00;;;;;;4850360;29;20133;-63
2021/12/04 15:00:17;;;;;;;60.17;13.20;;;20.50;46.00;;;;;;4857628;29;20041;-62
2021/12/04 15:02:53;;;;;;;45.38;11.25;;;20.50;46.10;;;;;;4846903;29;20030;-60
2021/12/04 15:05:38;;;;;;;51.75;11.88;;;20.50;46.20;;;;;;4834393;29;20021;-60
2021/12/04 15:08:13;;;;;;;57.67;12.98;;;20.50;46.30;;;;;;4854734;29;20030;-61
2021/12/04 15:10:40;;;;;;;52.63;11.95;;;20.50;46.40;;;;;;4850455;29;20068;-61
2021/12/04 15:13:17;;;;;;;54.40;11.63;;;20.50;46.40;;;;;;4852633;29;20152;-61
2021/12/04 15:15:43;;;;;;;40.30;10.82;;;20.50;46.40;;;;;;4850718;29;20038;-60
2021/12/04 15:18:13;;;;;;;48.60;11.57;;;20.60;46.50;;;;;;4850167;29;20046;-60
2021/12/04 15:20:45;;;;;;;45.30;10.52;;;20.50;46.60;;;;;;4855561;29;20026;-60
2021/12/04 15:23:16;;;;;;;41.10;10.27;;;20.60;46.60;;;;;;4847528;29;20060;-61
2021/12/04 15:25:45;;;;;;;39.90;9.65;;;20.60;46.60;;;;;;4854117;29;20025;-61
2021/12/04 15:28:19;;;;;;;41.22;9.60;;;20.60;46.70;;;;;;4850236;29;20041;-61
2021/12/04 15:30:49;;;;;;;40.17;9.88;;;20.60;46.80;;;;;;4861529;29;20184;-61
2021/12/04 15:33:22;;;;;;;42.28;9.77;;;20.60;46.80;;;;;;4850567;29;20490;-61
2021/12/04 15:35:50;;;;;;;45.28;10.60;;;20.60;46.80;;;;;;4854610;29;20394;-61
2021/12/04 15:38:23;;;;;;;35.83;8.45;;;20.60;46.80;;;;;;4851197;29;20028;-62
2021/12/04 15:41:12;;;;;;;33.58;8.82;;;20.60;46.90;;;;;;4865384;29;20041;-61
2021/12/04 15:54:13;;;;;;;33.20;7.78;;;20.60;47.10;;;;;;4848575;29;20570;-64
2021/12/04 15:56:50;;;;;;;21.03;6.07;;;20.60;47.10;;;;;;4853301;29;20188;-65
2021/12/04 15:59:19;;;;;;;26.23;6.40;;;20.60;46.30;;;;;;4851647;29;20049;-64
2021/12/04 16:01:46;;;;;;;22.23;6.25;;;20.60;46.10;;;;;;4854174;29;20077;-65
2021/12/04 16:04:22;;;;;;;27.05;6.80;;;20.60;46.20;;;;;;4851162;29;20029;-64
2021/12/04 16:06:48;;;;;;;25.67;6.57;;;20.60;46.30;;;;;;4851539;29;20125;-61
2021/12/04 16:09:22;;;;;;;23.85;6.22;;;20.50;46.50;;;;;;4848621;29;20036;-62
2021/12/04 16:11:48;;;;;;;27.45;6.72;;;20.50;46.60;;;;;;4855795;29;20494;-61
2021/12/04 16:14:14;;;;;;;23.50;7.05;;;20.50;46.80;;;;;;4833467;29;20067;-61